EHEHEBOS

Guest
Details From EHEH - Eindhoven
To EBOS - Oostende
Flight Number -
Tags Generated
Created
Modified
Stats Distance 95 nm / 176 km
Max Altitude 0 ft / 0 m
Waypoints 2
Social Downloads 1
Likes 0
Share VATSIM

Download

Looking for another format? Having issues loading an existing format? Contact us
Advertisement - Login to hide

Notes

Generated

Route

EHEH EBOS

ID Type Via Altitude Latitude Longitude Leg Dist Tot Dist Heading (true) Name
O EHEH APT - 0 ft / 0 m 51.43909˚ 5.36214˚ - 0 nm - -
O EBOS APT - 0 ft / 0 m 51.19832˚ 2.86670˚ 94 nm 94 nm 262° / 260° -

Altitude Profile

Advertisement - Login to hide

EHEH

Details ICAO EHEH (EIN)
Name Eindhoven
Region Netherlands
Timezone Europe/Amsterdam (UTC+2.0)
Stats Elevation 74 ft / 23 m (AMSL)
Location 51.450133° 5.374513°
Runways 1
Magnetic Variation 1.434° E

METAR

EHEH 271542Z AUTO 07008KT 040V100 9999 -DZRA FEW015CB SCT076 BKN096 20/17 Q1017 BLU 08007KT 9999 FEW060CB BKN110 TEMPO VRB08G18KT 4500 SHRA SCT050CB BKN070

Decode

TAF

TAF EHEH 271112Z 2712/2818 VRB03KT 9999 SCT045 BKN080 TEMPO 2712/2722 4000 SHRA TSRA SCT040CB BKN070 PROB40 TEMPO 2712/2721 VRB15G25KT 2000 TSRA TSRAGR SCT020 BKN035CB BECMG 2803/2805 3000 BR MIFG BECMG 2806/2809 10005KT 9999 NSW PROB30 TEMPO 2815/2818 SCT045CB

Decode

Departure Runways

ID Width Length Bearing (true) Bearing (mag) Surface Threshold Offset Overrun Length
03 148 ft / 45 m 9,832 ft / 2,997 m 34.92° 33.49° Asphalt 821 ft / 250 m 0 ft / 0 m
21 148 ft / 45 m 9,832 ft / 2,997 m 214.94° 213.51° Asphalt 821 ft / 250 m 0 ft / 0 m

EBOS

Details ICAO EBOS (OST)
Name Oostende
Region Belgium
Timezone Europe/Brussels (UTC+2.0)
Stats Elevation 13 ft / 4 m (AMSL)
Location 51.199967° 2.875008°
Runways 1
Magnetic Variation 0.652° E

METAR

EBOS 271520Z 00000KT 9999 -TSRA SCT035CB 18/15 Q1015 TEMPO VRB15G30KT 1500 TSRAGR

Decode

TAF

TAF EBOS 271111Z 2712/2818 11007KT 9999 FEW045TCU PROB30 TEMPO 2712/2803 VRB20G35KT 2500 +SHRA TSRAGR TEMPO 2803/2807 3000 BR PROB30 TEMPO 2804/2806 1500 MIFG PROB30 TEMPO 2814/2818 VRB20G35KT 2500 +SHRA TSRAGR

Decode

Destination Runways

ID Width Length Bearing (true) Bearing (mag) Surface Threshold Offset Overrun Length
08 148 ft / 45 m 10,515 ft / 3,205 m 76.36° 75.71° Asphalt 984 ft / 300 m 0 ft / 0 m
26 148 ft / 45 m 10,515 ft / 3,205 m 256.39° 255.74° Asphalt 1,362 ft / 415 m 0 ft / 0 m

Approach Navaids

Runway Type Ident Frequency Range Bearing (true) Bearing (mag) Slope Elevation
08 Localiser IMI 111.55 MHz 18 nm / 33 km 76.37° 75.72° - 13 ft / 4 m (AMSL)
08 Glidescope IMI 111.55 MHz 10 nm / 19 km 76.37° 75.72° 3.00° 13 ft / 4 m (AMSL)
08 DME IMI 111.55 MHz 18 nm / 33 km - - - 13 ft / 4 m (AMSL)
26 Localiser IOS 109.50 MHz 18 nm / 33 km 256.37° 255.72° - 13 ft / 4 m (AMSL)
26 Glidescope IOS 109.50 MHz 10 nm / 19 km 256.37° 255.72° 3.00° 13 ft / 4 m (AMSL)